Time;durP1;ratioP1;P1;durP2;ratioP2;P2;SDS_P1;SDS_P2;PMS_P1;PMS_P2;Temp;Humidity;BMP_temperature;BMP_pressure;BME280_temperature;BME280_humidity;BME280_pressure;Samples;Min_cycle;Max_cycle;Signal;HPM_P1;HPM_P2
2020/12/31 00:00:57;;;;;;;4.97;2.30;;;21.00;45.20;;;;;;5110780;28;20113;-49
2020/12/31 00:03:23;;;;;;;3.15;1.88;;;21.00;45.20;;;;;;5109571;28;20515;-50
2020/12/31 00:05:49;;;;;;;2.95;1.92;;;20.90;45.10;;;;;;5111214;28;20107;-64
2020/12/31 00:08:14;;;;;;;4.03;2.35;;;20.90;45.20;;;;;;5110180;28;20064;-42
2020/12/31 00:10:40;;;;;;;3.08;1.88;;;21.00;45.10;;;;;;5111508;28;20068;-48
2020/12/31 00:13:05;;;;;;;5.18;2.20;;;21.00;45.10;;;;;;5110485;28;20038;-56
2020/12/31 00:15:31;;;;;;;4.05;2.03;;;20.90;45.00;;;;;;5111512;28;20512;-58
2020/12/31 00:17:57;;;;;;;4.57;1.80;;;20.90;45.00;;;;;;5110710;28;20460;-48
2020/12/31 00:20:22;;;;;;;3.63;1.70;;;20.90;44.90;;;;;;5111776;28;20098;-39
2020/12/31 00:22:48;;;;;;;3.67;1.85;;;20.90;45.00;;;;;;5111067;28;20027;-61
2020/12/31 00:25:14;;;;;;;5.75;2.03;;;20.90;45.00;;;;;;5110585;28;20034;-51
2020/12/31 00:27:39;;;;;;;4.10;2.20;;;20.90;44.90;;;;;;5111241;28;20043;-46
2020/12/31 00:30:09;;;;;;;6.00;1.85;;;20.90;44.90;;;;;;5110654;28;20027;-38
2020/12/31 00:32:35;;;;;;;5.60;2.20;;;20.80;44.90;;;;;;5109644;28;20028;-47
2020/12/31 00:35:05;;;;;;;5.13;2.65;;;20.80;44.80;;;;;;5110298;28;20123;-44
2020/12/31 00:37:34;;;;;;;7.63;2.50;;;20.80;44.80;;;;;;5108541;28;20436;-44
2020/12/31 00:40:01;;;;;;;6.63;2.30;;;20.80;44.80;;;;;;5109858;28;20030;-53
2020/12/31 00:42:26;;;;;;;3.40;1.70;;;20.80;44.80;;;;;;5109747;28;20035;-50
2020/12/31 00:44:52;;;;;;;4.90;1.67;;;20.80;44.80;;;;;;5110049;28;20024;-59
2020/12/31 00:47:18;;;;;;;4.28;1.80;;;20.80;44.80;;;;;;5110917;28;20027;-53
2020/12/31 00:49:43;;;;;;;4.25;1.92;;;20.80;44.70;;;;;;5111151;28;20035;-49
2020/12/31 00:52:09;;;;;;;3.92;2.33;;;20.80;44.70;;;;;;5110420;28;20139;-53
2020/12/31 00:54:35;;;;;;;3.38;1.58;;;20.70;44.70;;;;;;5110165;28;20102;-54
2020/12/31 00:57:00;;;;;;;5.05;2.38;;;20.70;44.80;;;;;;5109982;28;20059;-45
2020/12/31 00:59:26;;;;;;;3.13;1.50;;;20.70;44.70;;;;;;5110999;28;20027;-45
2020/12/31 01:01:51;;;;;;;4.97;1.67;;;20.70;44.60;;;;;;5111096;28;20043;-48
2020/12/31 01:04:17;;;;;;;4.45;1.73;;;20.70;44.60;;;;;;5110569;28;20039;-55
2020/12/31 01:06:43;;;;;;;4.10;2.22;;;20.70;44.60;;;;;;5110636;28;20019;-48
2020/12/31 01:09:09;;;;;;;4.03;1.60;;;20.70;44.50;;;;;;5109428;28;20024;-52
2020/12/31 01:11:36;;;;;;;3.60;1.67;;;20.70;44.40;;;;;;5110433;28;20118;-57
2020/12/31 01:14:03;;;;;;;3.63;1.73;;;20.70;44.40;;;;;;5110032;28;20015;-47
2020/12/31 01:16:28;;;;;;;2.47;1.60;;;20.70;44.30;;;;;;5110768;28;20032;-49
2020/12/31 01:18:54;;;;;;;2.85;1.60;;;20.70;44.30;;;;;;5109662;28;20035;-54
2020/12/31 01:21:21;;;;;;;3.63;1.70;;;20.70;44.20;;;;;;5110759;28;20473;-43
2020/12/31 01:23:46;;;;;;;3.58;1.67;;;20.70;44.10;;;;;;5109934;28;20475;-59
2020/12/31 01:26:12;;;;;;;2.78;1.77;;;20.70;44.20;;;;;;5109876;28;20058;-38
2020/12/31 01:28:38;;;;;;;2.88;1.63;;;20.70;44.10;;;;;;5111052;28;20023;-43
2020/12/31 01:31:08;;;;;;;2.25;1.63;;;20.70;44.10;;;;;;5110957;28;20035;-56
2020/12/31 01:33:37;;;;;;;3.20;1.58;;;20.70;44.00;;;;;;5111642;28;20349;-45
2020/12/31 01:36:08;;;;;;;3.42;1.60;;;20.70;44.00;;;;;;5110919;28;20024;-56
2020/12/31 01:38:33;;;;;;;2.25;1.30;;;20.70;44.00;;;;;;5111716;28;20068;-44
2020/12/31 01:40:59;;;;;;;2.83;1.58;;;20.70;43.90;;;;;;5110504;28;20091;-39
2020/12/31 01:43:25;;;;;;;3.55;1.55;;;20.70;44.00;;;;;;5111622;28;20046;-50
2020/12/31 01:45:50;;;;;;;2.78;1.40;;;20.70;44.00;;;;;;5111488;28;20437;-55
2020/12/31 01:48:16;;;;;;;3.78;1.52;;;20.60;44.00;;;;;;5111351;28;20038;-47
2020/12/31 01:50:42;;;;;;;4.03;1.40;;;20.60;44.10;;;;;;5112078;28;20464;-50
2020/12/31 01:53:08;;;;;;;4.55;1.70;;;20.60;44.10;;;;;;5110383;28;20162;-51
2020/12/31 01:55:34;;;;;;;2.80;1.45;;;20.60;44.10;;;;;;5111732;28;20073;-50
2020/12/31 01:57:59;;;;;;;2.85;1.40;;;20.60;44.10;;;;;;5109600;28;20031;-55
2020/12/31 02:00:25;;;;;;;2.85;1.23;;;20.70;44.20;;;;;;5111878;28;20075;-53
2020/12/31 02:02:51;;;;;;;2.90;1.35;;;20.70;44.10;;;;;;5115776;28;20102;-60
2020/12/31 02:05:17;;;;;;;2.17;1.42;;;20.60;44.00;;;;;;5111454;28;20591;-42
2020/12/31 02:07:46;;;;;;;2.85;1.20;;;20.70;44.10;;;;;;5109794;28;20103;-46
2020/12/31 02:10:13;;;;;;;3.30;1.17;;;20.70;44.00;;;;;;5110305;28;20108;-61
2020/12/31 02:12:40;;;;;;;1.88;1.20;;;20.70;44.00;;;;;;5111410;28;20038;-56
2020/12/31 02:15:06;;;;;;;2.13;1.10;;;20.70;44.00;;;;;;5110487;28;20047;-47
2020/12/31 02:17:31;;;;;;;2.70;1.25;;;20.70;44.00;;;;;;5111271;28;20024;-46
2020/12/31 02:19:57;;;;;;;3.42;1.20;;;20.70;44.60;;;;;;5110408;28;20465;-46
2020/12/31 02:22:23;;;;;;;2.58;1.30;;;20.70;43.90;;;;;;5110089;28;20024;-50
2020/12/31 02:24:49;;;;;;;2.00;1.33;;;20.70;43.90;;;;;;5111540;28;20031;-46
2020/12/31 02:27:15;;;;;;;2.25;1.30;;;20.70;43.90;;;;;;5110005;28;20103;-46
2020/12/31 02:29:40;;;;;;;3.80;1.15;;;20.70;43.90;;;;;;5111806;28;20478;-44
2020/12/31 02:32:06;;;;;;;2.58;1.00;;;20.70;43.90;;;;;;5110446;28;20036;-49
2020/12/31 02:34:32;;;;;;;2.45;1.10;;;20.70;43.80;;;;;;5111360;27;20080;-46
2020/12/31 02:36:57;;;;;;;2.42;1.08;;;20.70;43.90;;;;;;5112891;28;20109;-46
2020/12/31 02:39:23;;;;;;;5.85;1.80;;;20.70;44.20;;;;;;5115285;27;20060;-56
2020/12/31 02:41:49;;;;;;;2.00;1.08;;;20.70;43.90;;;;;;5123000;27;20038;-38
2020/12/31 02:44:15;;;;;;;2.03;1.02;;;20.70;43.80;;;;;;5112826;27;20468;-46
2020/12/31 02:46:41;;;;;;;1.75;1.00;;;20.70;43.80;;;;;;5115227;28;20045;-46
2020/12/31 02:49:07;;;;;;;2.10;1.00;;;20.80;43.80;;;;;;5114023;28;20107;-46
2020/12/31 02:51:33;;;;;;;1.73;1.10;;;20.70;43.80;;;;;;5114516;28;20106;-48
2020/12/31 02:53:59;;;;;;;2.03;1.35;;;20.80;43.90;;;;;;5114008;28;20045;-45
2020/12/31 02:56:25;;;;;;;1.60;0.98;;;20.70;43.80;;;;;;5114103;28;20457;-46
2020/12/31 02:58:51;;;;;;;1.70;1.10;;;20.80;43.80;;;;;;5114649;28;20476;-46
2020/12/31 03:01:18;;;;;;;2.33;1.02;;;20.80;43.80;;;;;;5113659;28;20108;-47
2020/12/31 03:03:43;;;;;;;1.98;1.17;;;20.80;43.80;;;;;;5113771;28;20047;-58
2020/12/31 03:06:10;;;;;;;2.63;1.00;;;20.80;43.70;;;;;;5113524;28;20080;-43
2020/12/31 03:08:38;;;;;;;1.27;0.88;;;20.80;43.70;;;;;;5114266;28;20039;-45
2020/12/31 03:11:30;;;;;;;1.42;0.90;;;20.80;43.70;;;;;;5113492;28;20066;-54
2020/12/31 03:13:55;;;;;;;2.00;1.13;;;20.80;43.70;;;;;;5109936;27;20046;-57
2020/12/31 03:16:21;;;;;;;2.05;0.93;;;20.80;43.70;;;;;;5113924;28;20035;-38
2020/12/31 03:18:47;;;;;;;2.40;1.10;;;20.80;43.70;;;;;;5114213;28;20461;-39
2020/12/31 03:21:13;;;;;;;1.58;0.82;;;20.80;43.70;;;;;;5112887;28;20019;-51
2020/12/31 03:23:39;;;;;;;2.10;1.10;;;20.80;43.70;;;;;;5113908;28;20038;-59
2020/12/31 03:26:05;;;;;;;1.52;0.80;;;20.80;43.70;;;;;;5112994;28;20452;-53
2020/12/31 03:28:31;;;;;;;1.55;0.90;;;20.80;43.70;;;;;;5113694;28;20027;-61
2020/12/31 03:30:56;;;;;;;1.85;1.00;;;20.80;43.70;;;;;;5112875;28;20036;-59
2020/12/31 03:33:22;;;;;;;2.45;0.88;;;20.80;43.70;;;;;;5113795;28;20034;-42
2020/12/31 03:35:49;;;;;;;1.90;0.93;;;20.80;43.70;;;;;;5114001;28;20054;-50
2020/12/31 03:38:16;;;;;;;1.42;0.90;;;20.80;43.60;;;;;;5112765;28;20124;-49
2020/12/31 03:40:43;;;;;;;1.20;0.80;;;20.80;43.70;;;;;;5113747;27;20362;-46
2020/12/31 03:43:09;;;;;;;1.85;1.25;;;20.90;43.70;;;;;;5110858;28;20465;-46
2020/12/31 03:45:40;;;;;;;1.42;0.93;;;20.80;43.60;;;;;;5113130;28;20537;-38
2020/12/31 03:48:06;;;;;;;1.52;1.00;;;20.90;43.70;;;;;;5112361;28;20388;-46
2020/12/31 03:50:32;;;;;;;2.22;1.00;;;20.80;43.60;;;;;;5112723;28;20028;-55
2020/12/31 03:52:58;;;;;;;1.42;0.80;;;20.80;43.60;;;;;;5112061;28;20027;-54
2020/12/31 03:55:24;;;;;;;2.28;1.08;;;20.90;43.60;;;;;;5112976;28;20050;-45
2020/12/31 03:57:49;;;;;;;1.10;0.82;;;20.90;43.60;;;;;;5113331;28;20378;-47
2020/12/31 04:00:15;;;;;;;1.52;0.90;;;20.90;43.60;;;;;;5111274;28;20126;-52
2020/12/31 04:02:41;;;;;;;1.20;0.90;;;20.80;43.50;;;;;;5112838;28;20031;-42
2020/12/31 04:05:07;;;;;;;0.95;0.85;;;20.90;43.60;;;;;;5112529;28;20040;-58
2020/12/31 04:07:33;;;;;;;2.25;0.98;;;20.90;43.60;;;;;;5113158;28;20131;-44
2020/12/31 04:09:59;;;;;;;1.27;1.00;;;20.80;43.50;;;;;;5110887;28;20500;-47
2020/12/31 04:12:24;;;;;;;0.70;0.70;;;20.90;43.50;;;;;;5113036;28;20027;-49
2020/12/31 04:14:50;;;;;;;1.80;0.90;;;20.90;43.50;;;;;;5112477;28;20032;-53
2020/12/31 04:17:16;;;;;;;1.65;0.90;;;20.90;43.60;;;;;;5110535;28;20469;-55
2020/12/31 04:19:42;;;;;;;2.20;1.13;;;20.90;43.50;;;;;;5112911;28;20019;-42
2020/12/31 04:22:08;;;;;;;1.98;0.80;;;20.90;43.50;;;;;;5112197;27;20043;-50
2020/12/31 04:24:35;;;;;;;1.00;0.70;;;20.90;43.50;;;;;;5112512;28;20027;-53
2020/12/31 04:27:00;;;;;;;1.17;0.70;;;20.90;43.50;;;;;;5112102;28;20027;-45
2020/12/31 04:29:26;;;;;;;3.20;0.90;;;20.90;43.50;;;;;;5112757;28;20031;-44
2020/12/31 04:31:52;;;;;;;1.98;0.70;;;20.90;43.40;;;;;;5112666;28;20031;-49
2020/12/31 04:34:18;;;;;;;1.00;0.73;;;20.90;43.50;;;;;;5110663;28;20059;-43
2020/12/31 04:36:43;;;;;;;1.00;0.90;;;20.90;43.50;;;;;;5112277;28;20031;-51
2020/12/31 04:39:09;;;;;;;1.83;0.95;;;20.90;43.40;;;;;;5110632;28;20137;-42
2020/12/31 04:41:34;;;;;;;0.93;0.80;;;20.90;43.50;;;;;;5111325;28;20063;-60
2020/12/31 04:44:04;;;;;;;1.52;0.95;;;20.90;43.40;;;;;;5111230;28;20060;-53
2020/12/31 04:46:31;;;;;;;0.95;0.77;;;20.90;43.30;;;;;;5112485;28;20074;-57
2020/12/31 04:49:06;;;;;;;2.25;0.70;;;20.90;43.40;;;;;;5111556;28;20107;-64
2020/12/31 04:51:37;;;;;;;1.00;0.75;;;21.00;43.70;;;;;;5112850;28;20049;-38
2020/12/31 04:54:07;;;;;;;0.95;0.73;;;20.90;43.70;;;;;;5111390;28;20096;-43
2020/12/31 04:56:36;;;;;;;0.77;0.55;;;21.00;43.70;;;;;;5112202;28;20028;-45
2020/12/31 04:59:06;;;;;;;1.83;0.80;;;20.90;43.70;;;;;;5110207;28;20024;-47
2020/12/31 05:01:33;;;;;;;1.10;0.73;;;20.90;43.70;;;;;;5111837;28;20480;-56
2020/12/31 05:03:58;;;;;;;3.70;1.10;;;20.90;43.70;;;;;;5111542;28;20049;-60
2020/12/31 05:06:26;;;;;;;1.48;0.98;;;21.00;43.80;;;;;;5112198;28;20097;-46
2020/12/31 05:08:52;;;;;;;1.15;0.73;;;20.90;43.70;;;;;;5111938;28;20077;-46
2020/12/31 05:11:18;;;;;;;1.00;0.70;;;21.00;43.70;;;;;;5111670;28;20086;-45
2020/12/31 05:13:49;;;;;;;1.35;0.90;;;20.90;43.70;;;;;;5111851;28;20024;-46
2020/12/31 05:16:27;;;;;;;0.85;0.70;;;20.90;43.70;;;;;;5110984;28;20059;-47
2020/12/31 05:18:52;;;;;;;2.30;1.13;;;20.90;43.70;;;;;;5111733;28;20035;-46
2020/12/31 05:21:18;;;;;;;1.30;0.90;;;21.00;43.70;;;;;;5111142;28;20031;-57
2020/12/31 05:23:44;;;;;;;0.98;0.73;;;20.90;43.60;;;;;;5111989;28;20046;-49
2020/12/31 05:26:11;;;;;;;1.35;0.60;;;20.90;43.60;;;;;;5110791;28;20043;-45
2020/12/31 05:28:40;;;;;;;1.02;0.70;;;21.00;44.30;;;;;;5111746;28;20047;-43
2020/12/31 05:31:13;;;;;;;1.45;1.02;;;20.90;43.60;;;;;;5110498;28;20480;-43
2020/12/31 05:33:42;;;;;;;1.70;0.98;;;20.90;43.60;;;;;;5110289;28;20027;-54
2020/12/31 05:36:25;;;;;;;1.17;0.82;;;21.00;43.60;;;;;;5111341;28;20080;-44
2020/12/31 05:39:02;;;;;;;0.95;0.80;;;20.90;43.60;;;;;;5111691;28;20024;-61
2020/12/31 05:41:31;;;;;;;2.15;1.00;;;20.90;43.60;;;;;;5111558;28;20031;-58
2020/12/31 05:43:58;;;;;;;3.17;1.13;;;20.90;43.60;;;;;;5111153;28;20104;-60
2020/12/31 05:46:25;;;;;;;2.15;1.00;;;20.90;43.60;;;;;;5111654;28;20129;-58
2020/12/31 05:49:03;;;;;;;1.40;1.10;;;20.90;43.60;;;;;;5111740;28;20036;-55
2020/12/31 05:51:30;;;;;;;0.95;0.70;;;20.90;43.50;;;;;;5111573;28;20028;-44
2020/12/31 05:54:26;;;;;;;3.47;1.00;;;20.90;43.60;;;;;;5111799;28;20028;-38
2020/12/31 05:57:00;;;;;;;1.60;0.60;;;20.90;43.50;;;;;;5114447;28;20030;-40
2020/12/31 05:59:27;;;;;;;1.58;1.08;;;20.90;43.50;;;;;;5108216;28;20038;-48
2020/12/31 06:02:03;;;;;;;1.20;0.65;;;21.00;43.50;;;;;;5115729;27;20043;-41
2020/12/31 06:04:45;;;;;;;1.30;0.90;;;20.90;43.50;;;;;;5111365;28;20499;-41
2020/12/31 06:07:31;;;;;;;1.25;0.93;;;20.90;43.40;;;;;;5110894;28;20400;-43
2020/12/31 06:10:04;;;;;;;1.67;0.95;;;20.90;43.40;;;;;;5105129;28;20031;-54
2020/12/31 06:12:48;;;;;;;1.67;0.93;;;21.00;43.50;;;;;;5115730;28;20024;-45
2020/12/31 06:15:23;;;;;;;1.83;0.90;;;20.90;43.40;;;;;;5114331;27;20045;-46
2020/12/31 06:17:49;;;;;;;1.63;0.95;;;20.90;43.30;;;;;;5114690;28;20031;-41
2020/12/31 06:20:20;;;;;;;1.73;1.08;;;20.90;43.40;;;;;;5114764;28;20098;-45
2020/12/31 06:23:03;;;;;;;1.33;0.70;;;20.90;43.40;;;;;;5115471;28;20061;-46
2020/12/31 06:25:45;;;;;;;3.75;1.00;;;20.90;43.30;;;;;;5114665;28;20069;-43
2020/12/31 06:28:13;;;;;;;2.22;0.70;;;20.90;43.30;;;;;;5145799;27;20076;-44
2020/12/31 06:30:44;;;;;;;1.90;0.90;;;20.90;43.90;;;;;;5115231;28;20039;-56
2020/12/31 06:33:31;;;;;;;1.80;0.73;;;20.90;43.30;;;;;;5114237;28;20024;-46
2020/12/31 06:36:02;;;;;;;2.13;1.10;;;20.90;43.30;;;;;;5115049;28;20032;-43
2020/12/31 06:38:32;;;;;;;3.67;0.90;;;20.90;43.30;;;;;;5114770;28;20045;-47
2020/12/31 06:40:58;;;;;;;1.42;0.80;;;20.90;43.20;;;;;;5114849;28;20038;-46
2020/12/31 06:43:33;;;;;;;1.42;0.85;;;20.90;43.20;;;;;;5114202;28;20073;-44
2020/12/31 06:45:58;;;;;;;2.47;1.00;;;20.90;43.20;;;;;;5113169;28;20024;-54
2020/12/31 06:48:27;;;;;;;0.93;0.68;;;20.90;43.20;;;;;;5114142;28;20020;-47
2020/12/31 06:51:01;;;;;;;2.63;1.08;;;20.90;43.20;;;;;;5114422;28;20032;-42
2020/12/31 06:53:44;;;;;;;1.50;0.70;;;20.80;43.10;;;;;;5114192;28;20027;-45
2020/12/31 06:56:10;;;;;;;2.22;0.90;;;20.90;43.10;;;;;;5113770;28;20028;-48
2020/12/31 06:58:37;;;;;;;1.30;0.80;;;20.80;43.10;;;;;;5114458;28;20084;-51
2020/12/31 07:01:29;;;;;;;1.60;1.02;;;20.90;43.10;;;;;;5113957;28;20437;-60
2020/12/31 07:03:58;;;;;;;1.45;0.85;;;20.90;43.10;;;;;;5113899;28;20127;-48
2020/12/31 07:06:25;;;;;;;2.65;0.60;;;20.80;43.10;;;;;;5112370;28;20028;-43
2020/12/31 07:08:53;;;;;;;1.30;0.82;;;20.90;43.00;;;;;;5113149;28;20039;-49
2020/12/31 07:11:41;;;;;;;2.67;1.10;;;20.80;43.00;;;;;;5113361;28;20542;-53
2020/12/31 07:14:18;;;;;;;2.35;0.90;;;20.90;43.00;;;;;;5112533;28;20027;-44
2020/12/31 07:17:07;;;;;;;3.83;1.38;;;20.90;43.00;;;;;;5113894;28;20030;-47
2020/12/31 07:19:34;;;;;;;2.45;0.60;;;20.80;43.00;;;;;;5114149;28;20043;-46
2020/12/31 07:22:21;;;;;;;2.00;1.05;;;20.90;43.00;;;;;;5112887;28;20031;-60
2020/12/31 07:24:51;;;;;;;3.08;1.00;;;20.90;43.00;;;;;;5114042;28;20492;-49
2020/12/31 07:27:29;;;;;;;4.13;0.98;;;20.90;42.90;;;;;;5111618;28;20035;-48
2020/12/31 07:29:58;;;;;;;4.60;1.42;;;20.90;42.80;;;;;;5113562;28;20031;-47
2020/12/31 07:32:49;;;;;;;4.90;1.10;;;20.90;42.70;;;;;;5111433;28;20118;-52
2020/12/31 07:35:49;;;;;;;3.80;0.80;;;21.00;42.80;;;;;;5112847;28;20080;-52
2020/12/31 07:38:18;;;;;;;3.05;1.40;;;21.00;42.60;;;;;;5113126;27;20044;-46
2020/12/31 07:40:51;;;;;;;1.77;1.00;;;21.10;42.60;;;;;;5113567;28;20067;-45
2020/12/31 07:43:24;;;;;;;2.78;1.08;;;21.10;42.50;;;;;;5111545;28;20433;-52
2020/12/31 07:46:01;;;;;;;6.60;1.23;;;21.20;42.50;;;;;;5112020;28;20494;-48
2020/12/31 07:48:28;;;;;;;5.95;1.00;;;21.20;42.40;;;;;;5112632;28;20019;-51
2020/12/31 07:50:55;;;;;;;4.70;1.20;;;21.20;42.20;;;;;;5112979;28;20024;-50
2020/12/31 07:53:21;;;;;;;3.35;0.90;;;21.30;42.30;;;;;;5112649;28;20511;-52
2020/12/31 07:55:52;;;;;;;6.63;1.10;;;21.30;42.10;;;;;;5113122;27;20031;-53
2020/12/31 07:58:20;;;;;;;4.57;1.38;;;21.30;42.20;;;;;;5112200;28;20111;-51
2020/12/31 08:01:00;;;;;;;3.10;1.00;;;21.30;42.10;;;;;;5112820;28;20039;-51
2020/12/31 08:03:27;;;;;;;3.55;1.00;;;21.40;42.10;;;;;;5110662;28;20048;-44
2020/12/31 08:05:57;;;;;;;4.22;0.70;;;21.40;42.00;;;;;;5112071;28;20027;-50
2020/12/31 08:08:24;;;;;;;5.63;1.38;;;21.40;42.00;;;;;;5112334;28;20023;-49
2020/12/31 08:10:50;;;;;;;5.90;1.38;;;21.40;41.90;;;;;;5112616;28;20081;-49
2020/12/31 08:13:17;;;;;;;2.97;0.93;;;21.40;41.90;;;;;;5112707;28;20027;-48
2020/12/31 08:15:50;;;;;;;5.53;1.42;;;21.40;42.00;;;;;;5112954;28;20023;-51
2020/12/31 08:18:17;;;;;;;6.97;1.17;;;21.40;41.90;;;;;;5112125;28;20032;-48
2020/12/31 08:20:43;;;;;;;5.78;1.45;;;21.40;41.90;;;;;;5112810;28;20042;-47
2020/12/31 08:23:39;;;;;;;5.97;1.02;;;21.40;41.80;;;;;;5112128;28;20445;-51
2020/12/31 08:26:09;;;;;;;2.65;1.02;;;21.50;41.80;;;;;;5111584;28;20038;-60
2020/12/31 08:28:38;;;;;;;1.42;0.90;;;21.50;41.80;;;;;;5112848;28;20032;-49
2020/12/31 08:31:12;;;;;;;5.35;1.00;;;21.40;41.70;;;;;;5113020;28;20030;-56
2020/12/31 08:33:40;;;;;;;4.55;1.38;;;21.40;41.80;;;;;;5111866;28;20024;-49
2020/12/31 08:36:06;;;;;;;2.50;1.00;;;21.50;41.70;;;;;;5112312;28;20388;-62
2020/12/31 08:38:38;;;;;;;3.97;1.00;;;21.50;41.70;;;;;;5112970;28;20032;-47
2020/12/31 08:41:08;;;;;;;3.88;0.95;;;21.50;41.70;;;;;;5110947;28;20063;-60
2020/12/31 08:43:37;;;;;;;2.22;0.90;;;21.50;41.60;;;;;;5111899;28;20027;-62
2020/12/31 08:46:17;;;;;;;5.25;1.20;;;21.50;41.70;;;;;;5110665;28;20031;-63
2020/12/31 08:48:43;;;;;;;4.60;0.93;;;21.50;41.70;;;;;;5108053;28;20019;-49
2020/12/31 08:51:15;;;;;;;2.13;1.10;;;21.50;41.60;;;;;;5111557;28;20039;-50
2020/12/31 08:53:51;;;;;;;3.63;1.45;;;21.50;41.50;;;;;;5112053;28;20536;-48
2020/12/31 08:56:18;;;;;;;6.68;1.00;;;21.50;41.60;;;;;;5111503;28;20106;-49
2020/12/31 08:58:45;;;;;;;3.25;1.20;;;21.50;41.60;;;;;;5102285;28;20027;-49
2020/12/31 09:01:25;;;;;;;3.08;1.00;;;21.50;41.60;;;;;;5110151;28;20035;-58
2020/12/31 09:04:16;;;;;;;2.87;1.10;;;21.50;41.60;;;;;;5111536;28;20122;-56
2020/12/31 09:06:44;;;;;;;1.80;1.20;;;21.50;41.60;;;;;;5098537;28;20044;-48
2020/12/31 09:09:28;;;;;;;2.65;1.08;;;21.50;41.50;;;;;;5111487;28;20396;-60
2020/12/31 09:12:08;;;;;;;6.50;1.85;;;21.40;41.60;;;;;;5106386;28;20106;-53
2020/12/31 09:14:37;;;;;;;3.00;0.93;;;21.40;41.60;;;;;;5111428;28;20028;-50
2020/12/31 09:17:22;;;;;;;2.20;0.80;;;21.40;41.70;;;;;;5112317;28;20100;-52
2020/12/31 09:19:58;;;;;;;1.70;0.90;;;21.40;41.50;;;;;;5111270;28;20023;-47
2020/12/31 09:22:25;;;;;;;2.78;0.82;;;21.50;41.60;;;;;;5111102;28;20554;-50
2020/12/31 09:24:52;;;;;;;6.55;0.90;;;21.50;41.50;;;;;;5111913;28;20028;-44
2020/12/31 09:27:23;;;;;;;4.28;1.13;;;21.50;41.60;;;;;;5112403;28;20054;-42
2020/12/31 09:30:01;;;;;;;4.65;0.93;;;21.50;41.80;;;;;;5111534;28;20035;-42
2020/12/31 09:32:32;;;;;;;6.80;1.52;;;21.50;41.70;;;;;;5112788;28;20462;-48
2020/12/31 09:35:01;;;;;;;4.07;1.20;;;21.50;41.70;;;;;;5110171;28;20034;-44
2020/12/31 09:37:28;;;;;;;2.78;0.80;;;21.50;41.60;;;;;;5109257;28;20070;-44
2020/12/31 09:39:55;;;;;;;2.38;1.00;;;21.50;41.50;;;;;;5111421;28;20034;-43
2020/12/31 09:42:23;;;;;;;3.03;0.95;;;21.50;41.70;;;;;;5111699;28;20031;-43
2020/12/31 09:44:50;;;;;;;4.15;1.00;;;21.50;41.60;;;;;;5113628;28;20016;-43
2020/12/31 09:47:17;;;;;;;3.00;0.90;;;21.50;41.60;;;;;;5116054;28;20059;-43
2020/12/31 09:49:44;;;;;;;4.57;1.20;;;21.50;41.50;;;;;;5114806;28;20487;-43
2020/12/31 09:52:11;;;;;;;3.15;1.02;;;21.50;41.50;;;;;;5116170;28;20026;-54
2020/12/31 09:54:38;;;;;;;3.38;0.90;;;21.50;41.50;;;;;;5115548;28;20107;-42
2020/12/31 09:57:05;;;;;;;2.60;1.00;;;21.40;41.50;;;;;;5115777;27;20088;-42
2020/12/31 09:59:32;;;;;;;6.10;1.40;;;21.50;41.70;;;;;;5114885;28;20034;-42
2020/12/31 10:01:58;;;;;;;4.63;2.50;;;21.50;41.60;;;;;;5115890;28;20036;-43
2020/12/31 10:04:26;;;;;;;4.93;1.10;;;21.50;41.60;;;;;;5114180;28;20044;-43
2020/12/31 10:06:53;;;;;;;3.90;1.20;;;21.50;41.50;;;;;;5115495;28;20024;-43
2020/12/31 10:09:20;;;;;;;3.58;1.50;;;21.40;41.80;;;;;;5116303;28;20019;-47
2020/12/31 10:11:53;;;;;;;5.72;1.20;;;21.40;41.80;;;;;;5117090;28;20016;-42
2020/12/31 10:14:20;;;;;;;4.68;1.50;;;21.50;41.10;;;;;;5115732;28;20069;-54
2020/12/31 10:16:47;;;;;;;6.30;1.30;;;21.50;41.60;;;;;;5115842;27;20020;-43
2020/12/31 10:19:13;;;;;;;5.60;1.40;;;21.60;41.60;;;;;;5114577;28;20069;-45
2020/12/31 10:21:41;;;;;;;4.88;1.17;;;21.60;41.80;;;;;;5117899;28;20119;-49
2020/12/31 10:24:06;;;;;;;4.85;1.30;;;21.60;42.40;;;;;;5114581;28;20035;-54
2020/12/31 10:26:33;;;;;;;3.90;0.90;;;21.60;42.20;;;;;;5115487;28;20356;-43
2020/12/31 10:28:58;;;;;;;4.88;1.10;;;21.60;42.40;;;;;;5115991;28;20087;-38
2020/12/31 10:31:24;;;;;;;2.30;0.98;;;21.60;42.40;;;;;;5114486;28;20156;-37
2020/12/31 10:33:50;;;;;;;7.30;1.38;;;21.70;42.60;;;;;;5115113;28;20031;-44
2020/12/31 10:36:15;;;;;;;3.72;1.70;;;21.70;42.70;;;;;;5114350;28;20055;-34
2020/12/31 10:38:42;;;;;;;9.88;1.33;;;21.70;42.70;;;;;;5114683;28;20026;-43
2020/12/31 10:41:08;;;;;;;7.20;1.38;;;21.70;42.70;;;;;;5114175;28;20032;-57
2020/12/31 10:43:34;;;;;;;8.45;1.17;;;21.70;42.80;;;;;;5113749;27;20107;-49
2020/12/31 10:45:59;;;;;;;4.60;1.17;;;21.70;42.80;;;;;;5113279;28;20524;-52
2020/12/31 10:48:25;;;;;;;3.80;1.25;;;21.70;43.00;;;;;;5113640;28;20038;-40
2020/12/31 10:50:51;;;;;;;3.83;1.30;;;21.60;43.00;;;;;;5122611;27;20059;-41
2020/12/31 10:53:16;;;;;;;6.40;1.17;;;21.60;43.20;;;;;;5113066;27;20047;-42
2020/12/31 10:55:42;;;;;;;5.63;1.25;;;21.60;43.40;;;;;;5105085;28;20065;-42
2020/12/31 10:58:08;;;;;;;8.00;1.40;;;21.50;43.10;;;;;;5112493;28;20027;-53
2020/12/31 11:00:33;;;;;;;7.13;1.67;;;21.40;43.20;;;;;;5113327;28;20036;-47
2020/12/31 11:02:59;;;;;;;5.95;1.88;;;21.40;43.10;;;;;;5113648;28;20041;-38
2020/12/31 11:05:25;;;;;;;5.63;1.58;;;21.40;43.60;;;;;;5113348;28;20047;-39
2020/12/31 11:07:50;;;;;;;7.38;1.42;;;21.40;43.20;;;;;;5113460;28;20089;-43
2020/12/31 11:10:16;;;;;;;4.00;1.15;;;21.40;43.00;;;;;;5112590;28;20516;-45
2020/12/31 11:12:42;;;;;;;11.77;1.60;;;21.40;42.90;;;;;;5112815;28;20023;-37
2020/12/31 11:15:08;;;;;;;4.13;1.23;;;21.40;43.00;;;;;;5113080;28;20522;-60
2020/12/31 11:17:34;;;;;;;3.42;1.33;;;21.30;43.60;;;;;;5111835;28;20024;-43
2020/12/31 11:20:00;;;;;;;4.10;1.52;;;21.40;42.90;;;;;;5113860;27;20433;-46
2020/12/31 11:22:25;;;;;;;5.50;1.40;;;21.40;42.90;;;;;;5119021;27;20080;-38
2020/12/31 11:24:51;;;;;;;8.90;1.60;;;21.30;42.70;;;;;;5113699;28;20028;-39
2020/12/31 11:27:17;;;;;;;6.80;1.52;;;21.30;43.90;;;;;;5111483;28;20055;-43
2020/12/31 11:29:42;;;;;;;6.47;1.50;;;21.30;44.50;;;;;;5112082;28;20031;-41
2020/12/31 11:32:08;;;;;;;4.30;2.03;;;21.30;43.30;;;;;;5113395;28;20038;-41
2020/12/31 11:34:33;;;;;;;4.32;1.52;;;21.30;43.70;;;;;;5112163;28;20047;-45
2020/12/31 11:37:01;;;;;;;5.65;1.55;;;21.30;43.40;;;;;;5113662;28;20027;-38
2020/12/31 11:39:27;;;;;;;7.15;1.58;;;21.30;43.40;;;;;;5111196;28;20023;-37
2020/12/31 11:41:57;;;;;;;5.70;1.92;;;21.30;43.40;;;;;;5111665;28;20039;-38
2020/12/31 11:44:24;;;;;;;8.52;1.80;;;21.30;43.30;;;;;;5112236;28;20032;-41
2020/12/31 11:46:50;;;;;;;4.72;1.33;;;21.30;43.20;;;;;;5112083;28;20035;-40
2020/12/31 11:49:17;;;;;;;2.47;1.20;;;21.30;43.20;;;;;;5110361;28;20019;-41
2020/12/31 11:51:43;;;;;;;3.92;2.00;;;21.40;43.00;;;;;;5113305;28;20032;-42
2020/12/31 11:54:09;;;;;;;3.22;1.40;;;21.30;42.90;;;;;;5113131;28;20506;-48
2020/12/31 11:56:34;;;;;;;4.80;1.92;;;21.30;42.80;;;;;;5109806;28;20085;-36
2020/12/31 11:59:01;;;;;;;3.13;1.30;;;21.30;42.80;;;;;;5111501;28;20028;-37
2020/12/31 12:01:27;;;;;;;2.88;1.35;;;21.40;42.90;;;;;;5111977;28;20123;-40
2020/12/31 12:03:53;;;;;;;3.85;1.45;;;21.40;42.90;;;;;;5111526;28;20424;-42
2020/12/31 12:06:18;;;;;;;4.82;1.42;;;21.40;42.90;;;;;;5111714;28;20023;-38
2020/12/31 12:08:44;;;;;;;7.03;1.42;;;21.40;42.70;;;;;;5112216;28;20107;-42
2020/12/31 12:11:09;;;;;;;3.28;1.60;;;21.40;42.60;;;;;;5112415;28;20030;-48
2020/12/31 12:13:35;;;;;;;2.97;1.65;;;21.40;42.60;;;;;;5110628;28;20156;-43
2020/12/31 12:16:01;;;;;;;4.82;1.70;;;21.40;42.50;;;;;;5112634;28;20032;-41
2020/12/31 12:18:27;;;;;;;2.45;1.25;;;21.40;42.50;;;;;;5111558;28;20420;-43
2020/12/31 12:20:52;;;;;;;2.22;1.40;;;21.30;42.30;;;;;;5110002;28;20088;-52
2020/12/31 12:23:21;;;;;;;3.13;1.40;;;21.30;42.20;;;;;;5110345;28;20373;-42
2020/12/31 12:25:47;;;;;;;8.52;1.55;;;21.40;42.30;;;;;;5098209;27;20076;-43
2020/12/31 12:28:13;;;;;;;7.20;1.60;;;21.30;42.70;;;;;;5111421;27;20369;-42
2020/12/31 12:30:38;;;;;;;3.25;1.27;;;21.30;42.90;;;;;;5113918;27;20039;-40
2020/12/31 12:33:04;;;;;;;2.72;1.38;;;21.30;42.60;;;;;;5119991;27;20023;-41
2020/12/31 12:35:30;;;;;;;2.65;1.60;;;21.30;43.10;;;;;;5112613;27;20499;-40
2020/12/31 12:37:56;;;;;;;3.60;1.35;;;21.40;44.00;;;;;;5110999;28;20063;-52
2020/12/31 12:40:22;;;;;;;4.00;2.00;;;21.40;44.60;;;;;;5111207;28;20028;-38
2020/12/31 12:42:49;;;;;;;11.00;1.88;;;21.40;44.00;;;;;;5112155;28;20028;-51
2020/12/31 12:45:14;;;;;;;3.25;1.80;;;21.40;43.80;;;;;;5110839;28;20042;-59
2020/12/31 12:47:40;;;;;;;3.42;1.50;;;21.40;43.90;;;;;;5112106;28;20036;-41
2020/12/31 12:50:09;;;;;;;1.98;1.30;;;21.40;44.80;;;;;;5113681;28;20376;-43
2020/12/31 12:52:38;;;;;;;6.57;1.65;;;21.30;45.20;;;;;;5110937;28;20126;-41
2020/12/31 12:55:06;;;;;;;6.38;1.70;;;21.30;44.50;;;;;;5111564;28;20034;-38